sensor_id;sensor_type;location;lat;lon;timestamp;temperature;humidity
18268;DHT22;9260;49.998;19.880;2023-07-29T00:09:36;12.70;99.90
18268;DHT22;9260;49.998;19.880;2023-07-29T00:19:41;12.70;99.90
18268;DHT22;9260;49.998;19.880;2023-07-29T00:29:44;12.80;99.90
18268;DHT22;9260;49.998;19.880;2023-07-29T00:39:50;12.70;99.90
18268;DHT22;9260;49.998;19.880;2023-07-29T00:49:53;12.60;99.90
18268;DHT22;9260;49.998;19.880;2023-07-29T00:59:58;12.60;99.90
18268;DHT22;9260;49.998;19.880;2023-07-29T01:10:03;12.60;99.90
18268;DHT22;9260;49.998;19.880;2023-07-29T01:20:11;12.50;99.90
18268;DHT22;9260;49.998;19.880;2023-07-29T01:30:18;12.20;99.90
18268;DHT22;9260;49.998;19.880;2023-07-29T01:40:23;12.20;99.90
18268;DHT22;9260;49.998;19.880;2023-07-29T01:50:29;12.00;99.90
18268;DHT22;9260;49.998;19.880;2023-07-29T02:00:33;11.90;1.00
18268;DHT22;9260;49.998;19.880;2023-07-29T02:10:38;12.10;99.90
18268;DHT22;9260;49.998;19.880;2023-07-29T02:20:41;12.50;99.90
18268;DHT22;9260;49.998;19.880;2023-07-29T02:31:08;12.80;99.90
18268;DHT22;9260;49.998;19.880;2023-07-29T02:41:13;13.00;99.90
18268;DHT22;9260;49.998;19.880;2023-07-29T02:51:19;13.20;99.90
18268;DHT22;9260;49.998;19.880;2023-07-29T03:01:22;13.40;99.90
18268;DHT22;9260;49.998;19.880;2023-07-29T03:11:28;13.60;99.90
18268;DHT22;9260;49.998;19.880;2023-07-29T03:21:33;13.80;99.90
18268;DHT22;9260;49.998;19.880;2023-07-29T03:31:37;14.00;99.90
18268;DHT22;9260;49.998;19.880;2023-07-29T03:41:41;14.30;99.90
18268;DHT22;9260;49.998;19.880;2023-07-29T03:51:46;14.40;99.90
18268;DHT22;9260;49.998;19.880;2023-07-29T04:01:49;14.30;99.90
18268;DHT22;9260;49.998;19.880;2023-07-29T04:11:54;14.50;99.90
18268;DHT22;9260;49.998;19.880;2023-07-29T04:21:57;14.90;99.90
18268;DHT22;9260;49.998;19.880;2023-07-29T04:32:02;15.10;99.90
18268;DHT22;9260;49.998;19.880;2023-07-29T04:42:06;15.30;99.90
18268;DHT22;9260;49.998;19.880;2023-07-29T04:52:11;15.70;99.90
18268;DHT22;9260;49.998;19.880;2023-07-29T05:02:14;15.90;99.90
18268;DHT22;9260;49.998;19.880;2023-07-29T05:12:19;16.10;99.90
18268;DHT22;9260;49.998;19.880;2023-07-29T05:22:22;16.50;99.90
18268;DHT22;9260;49.998;19.880;2023-07-29T05:32:28;16.20;99.90
18268;DHT22;9260;49.998;19.880;2023-07-29T05:42:32;17.70;99.90
18268;DHT22;9260;49.998;19.880;2023-07-29T05:52:37;18.40;99.90
18268;DHT22;9260;49.998;19.880;2023-07-29T06:02:40;18.70;99.90
18268;DHT22;9260;49.998;19.880;2023-07-29T06:12:52;19.10;99.90
18268;DHT22;9260;49.998;19.880;2023-07-29T06:22:55;19.80;99.90
18268;DHT22;9260;49.998;19.880;2023-07-29T06:33:00;20.50;99.90
18268;DHT22;9260;49.998;19.880;2023-07-29T06:43:05;21.10;99.90
18268;DHT22;9260;49.998;19.880;2023-07-29T06:53:09;21.70;99.90
18268;DHT22;9260;49.998;19.880;2023-07-29T07:03:13;22.20;99.90
18268;DHT22;9260;49.998;19.880;2023-07-29T07:13:17;22.60;99.90
18268;DHT22;9260;49.998;19.880;2023-07-29T07:23:21;23.10;99.90
18268;DHT22;9260;49.998;19.880;2023-07-29T07:33:25;24.20;99.90
18268;DHT22;9260;49.998;19.880;2023-07-29T07:43:29;28.10;99.90
18268;DHT22;9260;49.998;19.880;2023-07-29T07:53:34;32.00;99.90
18268;DHT22;9260;49.998;19.880;2023-07-29T08:03:37;36.70;99.90
18268;DHT22;9260;49.998;19.880;2023-07-29T08:13:42;36.30;99.90
18268;DHT22;9260;49.998;19.880;2023-07-29T08:23:45;38.20;99.90
18268;DHT22;9260;49.998;19.880;2023-07-29T08:33:50;45.50;99.90
18268;DHT22;9260;49.998;19.880;2023-07-29T08:43:56;44.80;99.90
18268;DHT22;9260;49.998;19.880;2023-07-29T08:54:03;48.80;99.90
18268;DHT22;9260;49.998;19.880;2023-07-29T09:04:07;50.30;99.90
18268;DHT22;9260;49.998;19.880;2023-07-29T09:14:13;44.00;99.90
18268;DHT22;9260;49.998;19.880;2023-07-29T09:24:16;43.40;99.90
18268;DHT22;9260;49.998;19.880;2023-07-29T09:34:21;39.80;99.90
18268;DHT22;9260;49.998;19.880;2023-07-29T09:44:24;36.20;99.90
18268;DHT22;9260;49.998;19.880;2023-07-29T09:54:29;47.90;99.90
18268;DHT22;9260;49.998;19.880;2023-07-29T10:04:32;51.00;99.90
18268;DHT22;9260;49.998;19.880;2023-07-29T10:14:38;45.60;99.90
18268;DHT22;9260;49.998;19.880;2023-07-29T10:24:41;45.50;99.90
18268;DHT22;9260;49.998;19.880;2023-07-29T10:34:47;37.70;99.90
18268;DHT22;9260;49.998;19.880;2023-07-29T10:44:51;34.00;99.90
18268;DHT22;9260;49.998;19.880;2023-07-29T10:54:56;33.40;99.90
18268;DHT22;9260;49.998;19.880;2023-07-29T11:05:04;44.50;99.90
18268;DHT22;9260;49.998;19.880;2023-07-29T11:15:22;39.20;99.90
18268;DHT22;9260;49.998;19.880;2023-07-29T11:25:27;33.40;99.90
18268;DHT22;9260;49.998;19.880;2023-07-29T11:35:32;32.70;99.90
18268;DHT22;9260;49.998;19.880;2023-07-29T11:45:36;34.70;99.90
18268;DHT22;9260;49.998;19.880;2023-07-29T11:55:53;42.20;99.90
18268;DHT22;9260;49.998;19.880;2023-07-29T12:05:57;35.70;99.90
18268;DHT22;9260;49.998;19.880;2023-07-29T12:16:02;36.50;99.90
18268;DHT22;9260;49.998;19.880;2023-07-29T12:26:06;37.00;99.90
18268;DHT22;9260;49.998;19.880;2023-07-29T12:36:12;46.90;99.90
18268;DHT22;9260;49.998;19.880;2023-07-29T12:46:16;47.80;99.90
18268;DHT22;9260;49.998;19.880;2023-07-29T12:56:21;50.20;99.90
18268;DHT22;9260;49.998;19.880;2023-07-29T13:06:24;47.50;99.90
18268;DHT22;9260;49.998;19.880;2023-07-29T13:16:29;44.20;99.90
18268;DHT22;9260;49.998;19.880;2023-07-29T13:26:32;39.10;99.90
18268;DHT22;9260;49.998;19.880;2023-07-29T13:36:37;36.10;99.90
18268;DHT22;9260;49.998;19.880;2023-07-29T13:46:41;34.60;99.90
18268;DHT22;9260;49.998;19.880;2023-07-29T13:56:45;31.70;99.90
18268;DHT22;9260;49.998;19.880;2023-07-29T14:06:49;29.20;99.90
18268;DHT22;9260;49.998;19.880;2023-07-29T14:17:00;27.00;99.90
18268;DHT22;9260;49.998;19.880;2023-07-29T14:27:04;23.60;99.90
18268;DHT22;9260;49.998;19.880;2023-07-29T14:37:09;23.50;99.90
18268;DHT22;9260;49.998;19.880;2023-07-29T14:47:12;24.70;99.90
18268;DHT22;9260;49.998;19.880;2023-07-29T14:57:17;25.70;99.90
18268;DHT22;9260;49.998;19.880;2023-07-29T15:07:20;26.00;99.90
18268;DHT22;9260;49.998;19.880;2023-07-29T15:17:25;25.70;99.90
18268;DHT22;9260;49.998;19.880;2023-07-29T15:27:28;24.50;99.90
18268;DHT22;9260;49.998;19.880;2023-07-29T15:37:33;24.20;99.90
18268;DHT22;9260;49.998;19.880;2023-07-29T15:47:36;23.50;99.90
18268;DHT22;9260;49.998;19.880;2023-07-29T15:57:41;23.30;99.90
18268;DHT22;9260;49.998;19.880;2023-07-29T16:07:44;23.00;99.90
18268;DHT22;9260;49.998;19.880;2023-07-29T16:17:49;22.40;99.90
18268;DHT22;9260;49.998;19.880;2023-07-29T16:27:54;21.80;99.90
18268;DHT22;9260;49.998;19.880;2023-07-29T16:38:00;21.50;99.90
18268;DHT22;9260;49.998;19.880;2023-07-29T16:48:03;21.60;99.90
18268;DHT22;9260;49.998;19.880;2023-07-29T16:58:08;20.80;99.90
18268;DHT22;9260;49.998;19.880;2023-07-29T17:08:11;20.50;99.90
18268;DHT22;9260;49.998;19.880;2023-07-29T17:18:16;20.40;99.90
18268;DHT22;9260;49.998;19.880;2023-07-29T17:28:19;20.20;99.90
18268;DHT22;9260;49.998;19.880;2023-07-29T17:38:24;19.90;99.90
18268;DHT22;9260;49.998;19.880;2023-07-29T17:48:27;19.60;99.90
18268;DHT22;9260;49.998;19.880;2023-07-29T17:58:32;19.40;99.90
18268;DHT22;9260;49.998;19.880;2023-07-29T18:08:36;19.30;99.90
18268;DHT22;9260;49.998;19.880;2023-07-29T18:18:40;19.20;99.90
18268;DHT22;9260;49.998;19.880;2023-07-29T18:28:44;19.10;99.90
18268;DHT22;9260;49.998;19.880;2023-07-29T18:38:48;18.80;99.90
18268;DHT22;9260;49.998;19.880;2023-07-29T18:48:51;18.60;99.90
18268;DHT22;9260;49.998;19.880;2023-07-29T18:58:56;18.50;99.90
18268;DHT22;9260;49.998;19.880;2023-07-29T19:09:00;18.60;99.90
18268;DHT22;9260;49.998;19.880;2023-07-29T19:19:04;18.10;99.90
18268;DHT22;9260;49.998;19.880;2023-07-29T19:29:07;18.00;99.90
18268;DHT22;9260;49.998;19.880;2023-07-29T19:39:13;18.20;99.90
18268;DHT22;9260;49.998;19.880;2023-07-29T19:49:16;17.80;99.90
18268;DHT22;9260;49.998;19.880;2023-07-29T19:59:21;17.60;99.90
18268;DHT22;9260;49.998;19.880;2023-07-29T20:09:35;17.00;99.90
18268;DHT22;9260;49.998;19.880;2023-07-29T20:19:39;16.90;99.90
18268;DHT22;9260;49.998;19.880;2023-07-29T20:29:43;16.20;99.90
18268;DHT22;9260;49.998;19.880;2023-07-29T20:39:47;16.00;99.90
18268;DHT22;9260;49.998;19.880;2023-07-29T20:49:51;15.60;99.90
18268;DHT22;9260;49.998;19.880;2023-07-29T20:59:55;15.30;99.90
18268;DHT22;9260;49.998;19.880;2023-07-29T21:09:58;15.10;99.90
18268;DHT22;9260;49.998;19.880;2023-07-29T21:20:06;14.90;99.90
18268;DHT22;9260;49.998;19.880;2023-07-29T21:30:10;14.70;99.90
18268;DHT22;9260;49.998;19.880;2023-07-29T21:40:15;14.80;99.90
18268;DHT22;9260;49.998;19.880;2023-07-29T22:00:50;14.50;99.90
18268;DHT22;9260;49.998;19.880;2023-07-29T22:10:54;14.60;99.90
18268;DHT22;9260;49.998;19.880;2023-07-29T22:21:05;15.00;99.90
18268;DHT22;9260;49.998;19.880;2023-07-29T22:31:08;15.00;99.90
18268;DHT22;9260;49.998;19.880;2023-07-29T22:41:13;15.00;99.90
18268;DHT22;9260;49.998;19.880;2023-07-29T22:51:16;14.60;99.90
18268;DHT22;9260;49.998;19.880;2023-07-29T23:01:21;14.50;99.90
18268;DHT22;9260;49.998;19.880;2023-07-29T23:11:24;14.50;99.90
18268;DHT22;9260;49.998;19.880;2023-07-29T23:21:29;14.50;99.90
18268;DHT22;9260;49.998;19.880;2023-07-29T23:31:32;14.40;99.90
18268;DHT22;9260;49.998;19.880;2023-07-29T23:41:36;14.30;99.90
18268;DHT22;9260;49.998;19.880;2023-07-29T23:51:40;14.20;99.90
